臺北終端管制區 - 桃園五邊雷達席

SPECI RCTP 201938Z 23014KT 9999 FEW007 BKN012 BKN025 24/23 Q1010 WS R23R NOSIG RMK A2985=

站台狀態:Online
最後更新:2019-03-21 03:30:01